Atkins, Iowa
Current Conditions -  °F | °C
As of 11:52 AM on Thursday 29 Jan 2015 (Local Time) from KCID Reporting Station
Overcast Overcast  
Wind Chill: 21°   Ceiling: 1600
Heat Index: 34°   Visibility: 10mi
Dew Point: 30°   Wind: 25mph
Humidity: 85%   Direction: 320°NW
Pressure: 30.14"   Gusts: 33mph
Location:  42°N, 91.86°W
Report Text: KCID 291752Z 32022G29KT 10SM OVC016 01/M01 A3014 RMK AO2 PK WND 31031/1727 SLP214 60000 T00111011 10017 20006 51032
Loading
Personal Weather Stations






























Interactive Weather Map New forecast layout! Learn more

10-Day Weather Forecast

Advertisements
Track Severe Weather on mobile